Time;durP1;ratioP1;P1;durP2;ratioP2;P2;SDS_P1;SDS_P2;PMS_P1;PMS_P2;Temp;Humidity;BMP_temperature;BMP_pressure;BME280_temperature;BME280_humidity;BME280_pressure;Samples;Min_cycle;Max_cycle;Signal;HPM_P1;HPM_P2
2021/06/03 00:02:58;;;;;;;1.27;0.93;;;20.00;99.90;;;;;;20548747;23;20614;-67
2021/06/03 00:13:02;;;;;;;0.73;0.63;;;20.10;99.90;;;;;;20594565;28;20665;-68
2021/06/03 00:23:06;;;;;;;0.83;0.50;;;20.10;99.90;;;;;;20613125;28;20235;-67
2021/06/03 00:33:10;;;;;;;0.60;0.40;;;20.10;99.90;;;;;;20607891;28;20593;-68
2021/06/03 00:43:14;;;;;;;1.30;0.60;;;19.90;99.90;;;;;;20613388;28;20219;-67
2021/06/03 00:53:18;;;;;;;0.50;0.50;;;19.70;99.90;;;;;;20613487;28;20304;-66
2021/06/03 01:03:25;;;;;;;0.30;0.30;;;19.40;99.90;;;;;;20622015;23;20235;-67
2021/06/03 01:13:36;;;;;;;0.33;0.33;;;19.10;99.90;;;;;;20674999;28;20471;-67
2021/06/03 01:23:45;;;;;;;1.97;0.47;;;19.00;99.90;;;;;;20693241;28;20249;-66
2021/06/03 01:33:50;;;;;;;0.20;0.20;;;18.80;99.90;;;;;;20690129;28;20195;-66
2021/06/03 01:43:53;;;;;;;0.50;0.40;;;18.60;99.90;;;;;;20693014;28;20621;-66
2021/06/03 01:53:59;;;;;;;1.20;0.50;;;18.60;99.90;;;;;;20691135;28;20257;-65
2021/06/03 02:04:02;;;;;;;1.13;0.67;;;18.60;99.90;;;;;;20666946;23;20243;-70
2021/06/03 02:14:11;;;;;;;0.57;0.47;;;18.70;99.90;;;;;;20612352;28;20673;-70
2021/06/03 02:24:16;;;;;;;0.63;0.50;;;19.20;99.90;;;;;;20627380;28;20318;-71
2021/06/03 02:34:20;;;;;;;5.10;0.47;;;19.30;99.90;;;;;;20626214;28;20831;-70
2021/06/03 02:44:24;;;;;;;0.50;0.40;;;19.60;99.90;;;;;;20622966;28;20267;-72
2021/06/03 02:54:29;;;;;;;0.27;0.17;;;19.70;99.90;;;;;;20622181;28;20518;-71
2021/06/03 03:04:32;;;;;;;0.60;0.53;;;19.60;99.90;;;;;;20637897;23;20248;-68
2021/06/03 03:14:38;;;;;;;1.90;0.70;;;19.70;99.90;;;;;;20621372;28;20227;-66
2021/06/03 03:24:41;;;;;;;0.47;0.30;;;19.70;99.90;;;;;;20619044;28;20230;-66
2021/06/03 03:34:46;;;;;;;1.03;0.87;;;19.30;99.90;;;;;;20676244;28;20221;-66
2021/06/03 03:44:49;;;;;;;0.53;0.53;;;19.10;99.90;;;;;;20697027;28;20226;-68
2021/06/03 03:54:53;;;;;;;0.93;0.53;;;19.00;99.90;;;;;;20700787;28;20190;-67
2021/06/03 04:04:56;;;;;;;0.40;0.30;;;18.80;99.90;;;;;;20665260;23;20353;-66
2021/06/03 04:15:01;;;;;;;0.47;0.47;;;18.60;99.90;;;;;;20692232;28;20203;-66
2021/06/03 04:25:06;;;;;;;0.47;0.27;;;18.60;99.90;;;;;;20696182;28;20219;-66
2021/06/03 04:35:11;;;;;;;0.77;0.63;;;18.60;99.90;;;;;;20679049;28;21034;-65
2021/06/03 04:45:16;;;;;;;0.70;0.70;;;18.60;99.90;;;;;;20694233;28;20584;-66
2021/06/03 04:55:23;;;;;;;0.37;0.37;;;18.70;99.90;;;;;;20696621;28;20202;-60
2021/06/03 05:05:27;;;;;;;0.73;0.63;;;18.60;99.90;;;;;;20694987;28;20230;-64
2021/06/03 05:15:31;;;;;;;0.90;0.70;;;18.70;99.90;;;;;;20613879;28;20196;-65
2021/06/03 05:25:35;;;;;;;0.80;0.77;;;19.00;99.90;;;;;;20613161;28;20234;-62
2021/06/03 05:35:40;;;;;;;0.50;0.40;;;19.40;99.90;;;;;;20610614;28;20199;-67
2021/06/03 05:45:43;;;;;;;1.47;0.77;;;19.60;99.90;;;;;;20610792;28;20249;-67
2021/06/03 05:55:50;;;;;;;0.57;0.57;;;20.20;99.90;;;;;;20621552;28;20202;-67
2021/06/03 06:06:12;;;;;;;8.73;0.53;;;20.90;99.90;;;;;;20622777;28;20239;-66
2021/06/03 06:16:17;;;;;;;1.93;0.83;;;21.20;99.90;;;;;;20705279;28;20574;-67
2021/06/03 06:26:20;;;;;;;1.17;0.73;;;21.70;99.90;;;;;;20704281;28;20338;-68
2021/06/03 06:36:25;;;;;;;2.97;1.47;;;22.10;99.90;;;;;;20704522;28;20546;-64
2021/06/03 06:46:29;;;;;;;0.30;0.30;;;21.70;99.90;;;;;;20661541;28;20218;-67
2021/06/03 06:56:33;;;;;;;1.37;1.27;;;22.00;99.90;;;;;;20703724;28;20574;-66
2021/06/03 07:06:36;;;;;;;1.40;0.70;;;22.60;99.90;;;;;;20682704;28;20261;-64
2021/06/03 07:16:41;;;;;;;0.30;0.30;;;22.60;99.90;;;;;;20688543;28;20202;-67
2021/06/03 07:26:44;;;;;;;0.83;0.83;;;22.60;99.90;;;;;;20604937;28;20227;-65
2021/06/03 07:36:49;;;;;;;1.92;1.60;;;22.70;99.90;;;;;;20617238;28;20195;-66
2021/06/03 07:46:52;;;;;;;0.75;0.75;;;22.70;99.90;;;;;;20613120;28;20285;-66
2021/06/03 07:56:57;;;;;;;0.63;0.60;;;22.80;99.90;;;;;;20615077;28;20196;-68
2021/06/03 08:07:00;;;;;;;1.10;1.00;;;23.30;99.90;;;;;;20624511;28;20230;-66
2021/06/03 08:17:05;;;;;;;0.68;0.68;;;23.70;99.90;;;;;;20693212;28;20206;-67
2021/06/03 08:27:09;;;;;;;0.50;0.50;;;23.70;99.90;;;;;;20690694;28;20748;-66
2021/06/03 08:37:13;;;;;;;0.30;0.30;;;23.60;99.90;;;;;;20621280;28;20204;-65
2021/06/03 08:47:17;;;;;;;1.00;0.75;;;23.80;99.90;;;;;;20651074;28;20227;-67
2021/06/03 08:57:22;;;;;;;0.63;0.60;;;23.80;99.90;;;;;;20627512;28;20194;-64
2021/06/03 09:07:31;;;;;;;5.28;0.47;;;23.70;99.90;;;;;;20646203;28;20622;-64
2021/06/03 09:17:46;;;;;;;1.20;0.80;;;23.80;99.90;;;;;;20647235;28;20206;-65
2021/06/03 09:27:49;;;;;;;0.70;0.45;;;24.10;99.90;;;;;;20642330;28;20313;-65
2021/06/03 09:38:04;;;;;;;1.58;0.50;;;24.10;99.90;;;;;;20609358;28;20402;-66
2021/06/03 09:48:33;;;;;;;0.35;0.32;;;24.90;99.90;;;;;;20607608;28;20732;-67
2021/06/03 09:58:41;;;;;;;0.32;0.32;;;24.50;99.90;;;;;;20638744;28;20199;-63
2021/06/03 10:08:48;;;;;;;0.40;0.40;;;25.20;99.90;;;;;;20647594;28;20246;-66
2021/06/03 10:19:16;;;;;;;8.20;0.82;;;25.20;99.90;;;;;;20641568;28;20403;-63
2021/06/03 10:29:19;;;;;;;0.30;0.30;;;25.50;99.90;;;;;;20625793;28;20234;-64
2021/06/03 10:39:24;;;;;;;2.10;0.95;;;25.50;99.90;;;;;;20653274;28;20210;-64
2021/06/03 10:49:31;;;;;;;2.00;1.17;;;25.10;99.90;;;;;;20658368;28;20212;-65
2021/06/03 10:59:37;;;;;;;0.95;0.50;;;25.00;99.90;;;;;;20658789;28;20218;-64
2021/06/03 11:09:43;;;;;;;0.50;0.47;;;25.70;99.90;;;;;;20659562;28;20313;-65
2021/06/03 11:20:04;;;;;;;0.25;0.20;;;25.20;99.90;;;;;;20666634;28;20434;-63
2021/06/03 11:30:13;;;;;;;1.80;0.60;;;25.70;99.90;;;;;;20654138;28;20218;-64
2021/06/03 11:40:23;;;;;;;0.57;0.50;;;26.70;99.90;;;;;;20648552;28;20209;-66
2021/06/03 11:50:43;;;;;;;1.70;0.60;;;26.40;99.90;;;;;;20695024;28;20488;-66
2021/06/03 12:00:49;;;;;;;0.50;0.50;;;27.30;99.90;;;;;;20695868;28;20226;-66
2021/06/03 12:10:55;;;;;;;1.30;0.85;;;27.80;99.90;;;;;;20692817;28;20243;-67
2021/06/03 12:21:00;;;;;;;0.40;0.30;;;27.60;99.90;;;;;;20693076;28;20205;-68
2021/06/03 12:31:04;;;;;;;0.20;0.20;;;27.30;99.90;;;;;;20690845;28;20299;-66
2021/06/03 12:41:10;;;;;;;1.45;1.30;;;27.10;99.90;;;;;;20594937;28;20563;-65
2021/06/03 12:51:15;;;;;;;0.63;0.50;;;27.60;99.90;;;;;;20610192;28;20231;-64
2021/06/03 13:01:20;;;;;;;0.43;0.43;;;28.50;99.90;;;;;;20610062;28;20212;-64
2021/06/03 13:11:29;;;;;;;5.38;0.98;;;28.30;99.90;;;;;;20654031;28;20575;-69
2021/06/03 13:21:33;;;;;;;2.20;0.75;;;29.00;99.90;;;;;;20688880;28;20211;-66
2021/06/03 13:31:39;;;;;;;1.45;0.52;;;29.40;99.90;;;;;;20690306;28;20230;-68
2021/06/03 13:41:46;;;;;;;5.72;1.75;;;29.40;99.90;;;;;;20610138;28;20206;-68
2021/06/03 13:51:58;;;;;;;6.32;1.13;;;29.80;99.90;;;;;;20590423;28;20226;-65
2021/06/03 14:02:03;;;;;;;0.40;0.40;;;29.00;99.90;;;;;;20607367;28;20223;-65
2021/06/03 14:12:13;;;;;;;0.30;0.30;;;29.40;99.90;;;;;;20645748;28;20706;-66
2021/06/03 14:22:24;;;;;;;1.33;1.23;;;30.00;99.90;;;;;;20703977;28;20264;-66
2021/06/03 14:32:30;;;;;;;0.90;0.90;;;29.20;99.90;;;;;;20697293;28;20218;-66
2021/06/03 14:42:41;;;;;;;0.90;0.70;;;30.90;99.90;;;;;;20620673;28;20315;-67
2021/06/03 14:52:49;;;;;;;1.95;0.60;;;30.10;99.90;;;;;;20620308;28;20230;-66
2021/06/03 15:02:54;;;;;;;0.95;0.90;;;29.80;99.90;;;;;;20619185;28;20238;-66
2021/06/03 15:13:00;;;;;;;6.00;0.68;;;28.30;99.90;;;;;;20656332;28;20567;-67
2021/06/03 15:23:09;;;;;;;2.08;1.02;;;29.50;99.90;;;;;;20698659;28;20222;-65
2021/06/03 15:33:13;;;;;;;1.67;0.90;;;28.70;99.90;;;;;;20670236;28;20219;-66
2021/06/03 15:43:19;;;;;;;2.15;0.77;;;26.70;99.90;;;;;;20615448;28;20200;-67
2021/06/03 15:53:23;;;;;;;1.98;0.68;;;28.40;99.90;;;;;;20614596;28;20223;-66
2021/06/03 16:03:28;;;;;;;1.25;1.02;;;28.40;99.90;;;;;;20613091;28;20238;-64
2021/06/03 16:13:31;;;;;;;0.90;0.63;;;28.30;99.90;;;;;;20675971;28;20210;-67
2021/06/03 16:23:35;;;;;;;1.08;1.00;;;28.70;99.90;;;;;;20687508;28;20203;-64
2021/06/03 16:33:41;;;;;;;1.83;0.93;;;29.00;99.90;;;;;;20639846;28;20481;-66
2021/06/03 16:43:48;;;;;;;0.73;0.73;;;26.40;99.90;;;;;;20641072;28;20184;-65
2021/06/03 16:53:51;;;;;;;6.35;1.55;;;25.60;99.90;;;;;;20643013;28;20210;-61
2021/06/03 17:03:55;;;;;;;2.30;1.80;;;25.20;99.90;;;;;;20642942;28;20227;-66
2021/06/03 17:13:58;;;;;;;1.20;0.75;;;25.00;99.90;;;;;;20626835;28;20449;-68
2021/06/03 17:24:03;;;;;;;2.05;1.13;;;24.80;99.90;;;;;;20642104;28;20579;-68
2021/06/03 17:34:07;;;;;;;1.45;0.95;;;25.30;99.90;;;;;;20645967;28;20210;-64
2021/06/03 17:44:11;;;;;;;1.05;0.82;;;27.50;99.90;;;;;;20667987;28;20748;-68
2021/06/03 17:54:15;;;;;;;0.95;0.57;;;27.20;99.90;;;;;;20705544;28;20210;-69
2021/06/03 18:04:19;;;;;;;8.85;1.90;;;26.60;99.90;;;;;;20686605;28;20237;-64
2021/06/03 18:14:23;;;;;;;0.63;0.57;;;25.60;99.90;;;;;;20696368;28;20200;-65
2021/06/03 18:24:27;;;;;;;6.85;1.45;;;24.50;99.90;;;;;;20595818;28;21036;-64
2021/06/03 18:34:31;;;;;;;0.50;0.50;;;24.00;99.90;;;;;;20636440;28;20211;-65
2021/06/03 18:44:37;;;;;;;2.78;0.80;;;23.80;99.90;;;;;;20654437;28;20222;-66
2021/06/03 18:54:41;;;;;;;0.63;0.63;;;23.10;99.90;;;;;;20597691;28;20549;-64
2021/06/03 19:04:46;;;;;;;0.43;0.43;;;22.90;99.90;;;;;;20618428;28;20495;-65
2021/06/03 19:14:54;;;;;;;0.95;0.50;;;22.80;99.90;;;;;;20693453;28;20209;-64
2021/06/03 19:24:59;;;;;;;1.87;1.23;;;22.80;99.90;;;;;;20686712;28;20225;-67
2021/06/03 19:35:05;;;;;;;0.40;0.30;;;22.10;99.90;;;;;;20704931;28;20207;-66
2021/06/03 19:45:13;;;;;;;1.17;0.60;;;21.80;99.90;;;;;;20699153;28;20230;-68
2021/06/03 19:55:16;;;;;;;13.00;1.20;;;22.10;99.90;;;;;;20699401;28;20218;-66
2021/06/03 20:05:21;;;;;;;1.13;0.93;;;21.90;99.90;;;;;;20632850;28;20705;-66
2021/06/03 20:15:24;;;;;;;1.03;0.87;;;21.60;99.90;;;;;;20628399;28;20210;-66
2021/06/03 20:25:30;;;;;;;1.07;0.97;;;21.60;99.90;;;;;;20628420;28;20238;-65
2021/06/03 20:35:36;;;;;;;0.30;0.30;;;21.60;99.90;;;;;;20639447;28;20214;-67
2021/06/03 20:45:42;;;;;;;4.47;1.03;;;21.30;99.90;;;;;;20614304;28;20223;-66
2021/06/03 20:55:46;;;;;;;1.97;1.20;;;21.20;99.90;;;;;;20610887;28;20200;-67
2021/06/03 21:05:51;;;;;;;0.37;0.30;;;21.10;99.90;;;;;;20593725;28;20359;-65
2021/06/03 21:15:55;;;;;;;0.33;0.33;;;20.80;99.90;;;;;;20580113;28;20208;-67
2021/06/03 21:26:01;;;;;;;1.57;1.47;;;20.50;99.90;;;;;;20602933;28;20628;-66
2021/06/03 21:36:06;;;;;;;1.50;1.30;;;20.20;99.90;;;;;;20575065;28;20209;-67
2021/06/03 21:46:11;;;;;;;0.63;0.63;;;20.30;99.90;;;;;;20592694;28;20226;-66
2021/06/03 21:56:14;;;;;;;1.40;1.20;;;20.10;99.90;;;;;;20559942;28;20263;-66
2021/06/03 22:06:20;;;;;;;0.70;0.70;;;20.30;99.90;;;;;;20539040;28;20223;-67
2021/06/03 22:16:23;;;;;;;1.67;0.97;;;21.10;99.90;;;;;;20681701;28;20208;-67
2021/06/03 22:26:28;;;;;;;0.70;0.40;;;21.60;99.90;;;;;;20612172;28;20234;-68
2021/06/03 22:36:30;;;;;;;1.03;1.03;;;21.50;99.90;;;;;;20622514;28;20207;-69
2021/06/03 22:46:35;;;;;;;0.20;0.10;;;21.50;99.90;;;;;;20624500;28;20239;-67
2021/06/03 22:56:44;;;;;;;3.07;2.00;;;21.30;99.90;;;;;;20623880;28;20242;-67
2021/06/03 23:06:48;;;;;;;0.93;0.70;;;21.50;99.90;;;;;;20614188;28;20226;-67
2021/06/03 23:16:52;;;;;;;0.40;0.40;;;21.10;99.90;;;;;;20683446;28;20199;-68
2021/06/03 23:27:00;;;;;;;2.83;1.07;;;20.90;99.90;;;;;;20702156;28;20239;-67
2021/06/03 23:37:06;;;;;;;0.57;0.47;;;20.80;99.90;;;;;;20700532;28;20272;-67
2021/06/03 23:47:10;;;;;;;2.30;1.80;;;20.90;99.90;;;;;;20682036;28;20722;-67
2021/06/03 23:57:13;;;;;;;10.33;1.93;;;21.00;99.90;;;;;;20686329;28;20207;-67
